createdAt,value
2023-12-16T00:04:10.588Z,66.91
2023-12-16T00:09:12.129Z,67.35
2023-12-16T00:14:13.877Z,67.46
2023-12-16T00:19:15.740Z,67.23
2023-12-16T00:24:17.837Z,67.07
2023-12-16T00:29:19.631Z,67.08
2023-12-16T00:34:21.697Z,67.12
2023-12-16T00:39:23.468Z,67.43
2023-12-16T00:44:24.992Z,66.97
2023-12-16T00:49:26.556Z,66.90
2023-12-16T00:54:28.189Z,66.70
2023-12-16T01:04:48.913Z,66.85
2023-12-16T01:09:52.264Z,66.64
2023-12-16T01:14:53.810Z,66.51
2023-12-16T01:19:55.353Z,66.94
2023-12-16T01:24:57.255Z,66.82
2023-12-16T01:29:59.060Z,66.73
2023-12-16T01:35:00.592Z,67.00
2023-12-16T01:40:02.415Z,66.63
2023-12-16T01:45:05.228Z,66.60
2023-12-16T01:50:07.631Z,66.85
2023-12-16T01:55:11.043Z,67.08
2023-12-16T02:00:13.211Z,66.74
2023-12-16T02:05:14.808Z,66.74
2023-12-16T02:10:16.462Z,66.60
2023-12-16T02:15:18.064Z,66.67
2023-12-16T02:20:20.174Z,66.93
2023-12-16T02:25:21.856Z,66.25
2023-12-16T02:30:24.765Z,66.60
2023-12-16T02:35:26.320Z,66.68
2023-12-16T02:40:27.909Z,66.90
2023-12-16T02:45:29.503Z,66.75
2023-12-16T02:50:31.005Z,66.87
2023-12-16T02:55:32.593Z,67.19
2023-12-16T03:00:34.264Z,67.00
2023-12-16T03:05:35.874Z,67.16
2023-12-16T03:10:37.529Z,67.04
2023-12-16T03:15:39.731Z,66.32
2023-12-16T03:20:41.427Z,66.51
2023-12-16T03:25:44.373Z,66.12
2023-12-16T03:30:46.067Z,65.35
2023-12-16T03:35:49.541Z,65.30
2023-12-16T03:40:51.194Z,65.34
2023-12-16T03:45:52.816Z,64.55
2023-12-16T03:50:54.359Z,64.05
2023-12-16T03:55:55.932Z,64.25
2023-12-16T04:00:57.506Z,63.20
2023-12-16T04:05:59.093Z,63.03
2023-12-16T04:11:00.605Z,62.76
2023-12-16T04:16:04.649Z,62.59
2023-12-16T04:21:06.400Z,62.14
2023-12-16T04:26:08.753Z,61.80
2023-12-16T04:31:14.952Z,61.63
2023-12-16T04:36:17.652Z,62.34
2023-12-16T04:41:19.260Z,62.83
2023-12-16T04:46:21.957Z,63.14
2023-12-16T04:51:23.790Z,63.05
2023-12-16T04:56:25.351Z,63.67
2023-12-16T05:01:26.978Z,63.60
2023-12-16T05:06:28.556Z,63.39
2023-12-16T05:11:30.661Z,63.38
2023-12-16T05:16:32.997Z,63.74
2023-12-16T05:21:34.667Z,63.42
2023-12-16T05:26:36.262Z,63.21
2023-12-16T05:31:37.852Z,63.61
2023-12-16T05:36:39.361Z,63.42
2023-12-16T05:41:40.940Z,63.09
2023-12-16T05:46:42.472Z,63.35
2023-12-16T05:51:44.006Z,63.30
2023-12-16T05:56:45.564Z,63.56
2023-12-16T06:01:47.316Z,63.44
2023-12-16T06:06:49.401Z,63.38
2023-12-16T06:11:51.089Z,63.43
2023-12-16T06:16:52.747Z,63.12
2023-12-16T06:21:54.409Z,63.07
2023-12-16T06:26:56.143Z,63.59
2023-12-16T06:31:57.711Z,63.08
2023-12-16T06:36:59.271Z,62.73
2023-12-16T06:42:00.861Z,63.24
2023-12-16T06:47:02.635Z,63.42
2023-12-16T06:52:04.596Z,63.54
2023-12-16T06:57:06.271Z,63.30
2023-12-16T07:02:07.871Z,63.85
2023-12-16T07:07:09.584Z,63.60
2023-12-16T07:12:11.175Z,63.36
2023-12-16T07:17:12.705Z,63.87
2023-12-16T07:22:17.604Z,63.81
2023-12-16T07:27:19.238Z,63.58
2023-12-16T07:32:20.866Z,63.86
2023-12-16T07:37:22.567Z,63.64
2023-12-16T07:42:24.252Z,63.54
2023-12-16T07:47:25.966Z,63.52
2023-12-16T07:52:28.256Z,63.32
2023-12-16T07:57:29.935Z,63.15
2023-12-16T08:02:32.246Z,63.58
2023-12-16T08:07:33.845Z,63.78
2023-12-16T08:12:35.471Z,63.81
2023-12-16T08:17:38.841Z,63.83
2023-12-16T08:22:40.999Z,64.07
2023-12-16T08:27:42.961Z,64.06
2023-12-16T08:32:44.772Z,63.65
2023-12-16T08:43:05.489Z,63.21
2023-12-16T08:48:07.140Z,62.36
2023-12-16T08:53:10.621Z,62.04
2023-12-16T08:58:12.330Z,61.93
2023-12-16T09:03:15.796Z,62.36
2023-12-16T09:08:17.362Z,61.98
2023-12-16T09:13:18.945Z,61.90
2023-12-16T09:18:20.791Z,61.52
2023-12-16T09:23:22.592Z,61.88
2023-12-16T09:28:24.188Z,62.52
2023-12-16T09:33:25.933Z,63.01
2023-12-16T09:38:27.528Z,63.07
2023-12-16T09:43:34.312Z,63.71
2023-12-16T09:48:36.588Z,63.76
2023-12-16T09:53:38.265Z,63.79
2023-12-16T09:58:45.910Z,63.54
2023-12-16T10:03:48.500Z,63.66
2023-12-16T10:08:50.448Z,63.78
2023-12-16T10:14:05.245Z,63.67
2023-12-16T10:19:07.028Z,64.04
2023-12-16T10:24:09.755Z,63.78
2023-12-16T10:29:12.610Z,63.77
2023-12-16T10:34:15.905Z,63.74
2023-12-16T10:39:17.564Z,63.49
2023-12-16T10:44:19.321Z,63.49
2023-12-16T10:49:28.607Z,63.16
2023-12-16T10:54:40.998Z,62.73
2023-12-16T10:59:49.073Z,62.77
2023-12-16T11:05:02.359Z,62.80
2023-12-16T11:10:07.175Z,62.39
2023-12-16T11:15:10.666Z,62.57
2023-12-16T11:20:18.188Z,63.29
2023-12-16T11:25:21.542Z,62.99
2023-12-16T11:30:23.453Z,62.68
2023-12-16T11:35:37.399Z,62.79
2023-12-16T11:40:43.544Z,62.86
2023-12-16T11:45:49.916Z,62.93
2023-12-16T11:50:51.502Z,62.71
2023-12-16T11:55:53.064Z,63.19
2023-12-16T12:00:54.784Z,63.13
2023-12-16T12:05:57.462Z,63.49
2023-12-16T12:10:59.305Z,63.66
2023-12-16T12:16:01.031Z,63.61
2023-12-16T12:21:02.973Z,63.83
2023-12-16T12:26:05.489Z,63.58
2023-12-16T12:31:09.687Z,64.14
2023-12-16T12:36:11.730Z,64.32
2023-12-16T12:41:15.913Z,64.24
2023-12-16T12:46:18.223Z,64.23
2023-12-16T12:51:19.791Z,64.07
2023-12-16T12:56:21.344Z,64.30
2023-12-16T13:01:23.071Z,65.05
2023-12-16T13:06:25.094Z,64.80
2023-12-16T13:11:26.796Z,65.25
2023-12-16T13:16:28.514Z,65.59
2023-12-16T13:21:30.330Z,66.39
2023-12-16T13:26:32.133Z,66.65
2023-12-16T13:31:33.725Z,67.02
2023-12-16T13:36:49.720Z,67.37
2023-12-16T13:41:53.033Z,67.21
2023-12-16T13:46:54.951Z,67.15
2023-12-16T13:51:56.470Z,67.65
2023-12-16T13:56:58.247Z,67.64
2023-12-16T14:02:00.648Z,67.57
2023-12-16T14:07:02.255Z,67.73
2023-12-16T14:12:04.174Z,67.95
2023-12-16T14:17:06.098Z,68.27
2023-12-16T14:22:07.646Z,68.75
2023-12-16T14:27:09.743Z,69.14
2023-12-16T14:32:11.424Z,69.61
2023-12-16T14:37:13.014Z,69.66
2023-12-16T14:42:15.892Z,69.58
2023-12-16T14:47:17.463Z,69.61
2023-12-16T14:52:19.089Z,69.31
2023-12-16T14:57:22.085Z,69.89
2023-12-16T15:02:23.616Z,70.09
2023-12-16T15:07:25.237Z,70.05
2023-12-16T15:12:27.151Z,69.73
2023-12-16T15:17:28.815Z,69.63
2023-12-16T15:22:30.452Z,70.10
2023-12-16T15:27:32.273Z,70.32
2023-12-16T15:32:33.945Z,70.38
2023-12-16T15:37:35.712Z,70.52
2023-12-16T15:42:38.279Z,70.76
2023-12-16T15:47:40.731Z,71.13
2023-12-16T15:52:42.654Z,70.97
2023-12-16T15:57:44.410Z,70.94
2023-12-16T16:02:48.795Z,71.61
2023-12-16T16:07:50.459Z,71.91
2023-12-16T16:12:52.074Z,72.09
2023-12-16T16:17:53.672Z,72.04
2023-12-16T16:22:55.275Z,72.86
2023-12-16T16:27:57.236Z,72.69
2023-12-16T16:32:58.905Z,72.97
2023-12-16T16:38:00.546Z,73.43
2023-12-16T16:43:02.187Z,73.99
2023-12-16T16:48:04.058Z,73.46
2023-12-16T16:53:06.000Z,73.65
2023-12-16T16:58:07.601Z,73.90
2023-12-16T17:03:10.006Z,74.33
2023-12-16T17:08:14.447Z,74.44
2023-12-16T17:13:15.999Z,74.73
2023-12-16T17:18:17.737Z,74.80
2023-12-16T17:23:19.315Z,74.83
2023-12-16T17:28:21.963Z,75.68
2023-12-16T17:33:24.069Z,75.66
2023-12-16T17:38:25.982Z,76.31
2023-12-16T17:43:27.523Z,76.58
2023-12-16T17:48:29.269Z,77.22
2023-12-16T17:53:30.948Z,77.53
2023-12-16T17:58:35.367Z,77.78
2023-12-16T18:03:38.409Z,77.76
2023-12-16T18:08:40.021Z,78.12
2023-12-16T18:13:41.591Z,77.96
2023-12-16T18:18:43.804Z,77.72
2023-12-16T18:23:46.370Z,78.00
2023-12-16T18:28:48.221Z,78.10
2023-12-16T18:33:49.915Z,78.26
2023-12-16T18:38:51.588Z,78.50
2023-12-16T18:43:54.500Z,78.26
2023-12-16T18:48:56.214Z,78.32
2023-12-16T18:53:58.693Z,78.34
2023-12-16T18:59:00.242Z,78.21
2023-12-16T19:04:01.930Z,78.61
2023-12-16T19:09:04.081Z,78.29
2023-12-16T19:14:05.681Z,78.53
2023-12-16T19:19:07.392Z,78.46
2023-12-16T19:24:13.324Z,78.25
2023-12-16T19:29:14.938Z,77.98
2023-12-16T19:34:16.711Z,78.06
2023-12-16T19:39:22.914Z,78.21
2023-12-16T19:44:25.404Z,77.56
2023-12-16T19:49:27.365Z,77.97
2023-12-16T19:54:29.044Z,77.94
2023-12-16T19:59:33.770Z,77.78
2023-12-16T20:04:35.556Z,77.55
2023-12-16T20:09:37.127Z,77.70
2023-12-16T20:14:38.890Z,77.29
2023-12-16T20:19:40.527Z,77.17
2023-12-16T20:24:42.198Z,76.64
2023-12-16T20:29:45.614Z,76.74
2023-12-16T20:34:47.267Z,76.45
2023-12-16T20:40:07.298Z,76.12
2023-12-16T20:45:10.145Z,76.48
2023-12-16T20:50:12.596Z,75.98
2023-12-16T20:55:15.483Z,76.05
2023-12-16T21:00:24.984Z,75.48
2023-12-16T21:05:27.465Z,75.38
2023-12-16T21:10:28.987Z,75.50
2023-12-16T21:15:30.541Z,75.31
2023-12-16T21:20:32.251Z,74.69
2023-12-16T21:25:33.848Z,74.58
2023-12-16T21:30:35.732Z,75.00
2023-12-16T21:35:37.434Z,74.71
2023-12-16T21:40:38.991Z,74.85
2023-12-16T21:45:40.590Z,74.64
2023-12-16T21:50:42.311Z,74.88
2023-12-16T21:55:43.982Z,74.53
2023-12-16T22:00:45.627Z,74.35
2023-12-16T22:05:47.312Z,74.73
2023-12-16T22:10:48.953Z,75.27
2023-12-16T22:15:50.511Z,74.77
2023-12-16T22:20:52.112Z,75.12
2023-12-16T22:25:55.034Z,74.93
2023-12-16T22:30:56.731Z,74.97
2023-12-16T22:35:58.259Z,75.55
2023-12-16T22:40:59.937Z,75.30
2023-12-16T22:46:01.511Z,75.94
2023-12-16T22:51:03.312Z,75.97
2023-12-16T22:56:05.375Z,76.55
2023-12-16T23:01:09.311Z,76.10
2023-12-16T23:06:11.601Z,77.45
2023-12-16T23:11:13.174Z,77.10
2023-12-16T23:16:14.749Z,77.44
2023-12-16T23:21:17.166Z,77.44
2023-12-16T23:26:18.885Z,77.00
2023-12-16T23:31:20.552Z,77.14
2023-12-16T23:36:22.474Z,77.64
2023-12-16T23:41:24.272Z,77.66
2023-12-16T23:46:25.849Z,77.65
2023-12-16T23:51:27.640Z,78.25
2023-12-16T23:56:29.331Z,77.80
